sensor_id;sensor_type;location;lat;lon;timestamp;P1;durP1;ratioP1;P2;durP2;ratioP2
55037;SDS011;40937;53.594;10.034;2023-04-25T00:00:31;8.52;;;4.50;;
55037;SDS011;40937;53.594;10.034;2023-04-25T00:02:58;9.50;;;4.63;;
55037;SDS011;40937;53.594;10.034;2023-04-25T00:05:27;5.78;;;4.30;;
55037;SDS011;40937;53.594;10.034;2023-04-25T00:07:55;6.40;;;4.60;;
55037;SDS011;40937;53.594;10.034;2023-04-25T00:10:22;7.18;;;4.07;;
55037;SDS011;40937;53.594;10.034;2023-04-25T00:12:48;11.50;;;4.78;;
55037;SDS011;40937;53.594;10.034;2023-04-25T00:15:16;9.32;;;5.30;;
55037;SDS011;40937;53.594;10.034;2023-04-25T00:17:43;6.63;;;4.38;;
55037;SDS011;40937;53.594;10.034;2023-04-25T00:20:11;11.13;;;4.85;;
55037;SDS011;40937;53.594;10.034;2023-04-25T00:22:39;22.13;;;5.97;;
55037;SDS011;40937;53.594;10.034;2023-04-25T00:25:07;12.55;;;4.85;;
55037;SDS011;40937;53.594;10.034;2023-04-25T00:27:34;17.95;;;6.00;;
55037;SDS011;40937;53.594;10.034;2023-04-25T00:30:00;13.82;;;5.03;;
55037;SDS011;40937;53.594;10.034;2023-04-25T00:32:28;19.05;;;6.43;;
55037;SDS011;40937;53.594;10.034;2023-04-25T00:34:56;21.83;;;5.82;;
55037;SDS011;40937;53.594;10.034;2023-04-25T00:37:23;29.75;;;6.03;;
55037;SDS011;40937;53.594;10.034;2023-04-25T00:39:52;25.52;;;5.97;;
55037;SDS011;40937;53.594;10.034;2023-04-25T00:42:21;20.48;;;5.30;;
55037;SDS011;40937;53.594;10.034;2023-04-25T00:44:48;19.65;;;5.15;;
55037;SDS011;40937;53.594;10.034;2023-04-25T00:47:15;20.23;;;5.22;;
55037;SDS011;40937;53.594;10.034;2023-04-25T00:49:42;25.40;;;5.90;;
55037;SDS011;40937;53.594;10.034;2023-04-25T00:52:11;18.67;;;5.85;;
55037;SDS011;40937;53.594;10.034;2023-04-25T00:54:38;28.63;;;6.30;;
55037;SDS011;40937;53.594;10.034;2023-04-25T00:57:07;29.77;;;6.20;;
55037;SDS011;40937;53.594;10.034;2023-04-25T00:59:34;30.60;;;6.15;;
55037;SDS011;40937;53.594;10.034;2023-04-25T01:02:02;24.85;;;6.25;;
55037;SDS011;40937;53.594;10.034;2023-04-25T01:04:29;30.15;;;5.63;;
55037;SDS011;40937;53.594;10.034;2023-04-25T01:06:56;24.08;;;5.25;;
55037;SDS011;40937;53.594;10.034;2023-04-25T01:09:23;30.25;;;6.22;;
55037;SDS011;40937;53.594;10.034;2023-04-25T01:11:50;23.92;;;5.55;;
55037;SDS011;40937;53.594;10.034;2023-04-25T01:14:19;26.88;;;5.25;;
55037;SDS011;40937;53.594;10.034;2023-04-25T01:16:46;26.92;;;6.82;;
55037;SDS011;40937;53.594;10.034;2023-04-25T01:19:13;27.10;;;5.70;;
55037;SDS011;40937;53.594;10.034;2023-04-25T01:21:47;23.70;;;6.05;;
55037;SDS011;40937;53.594;10.034;2023-04-25T01:24:14;28.33;;;6.40;;
55037;SDS011;40937;53.594;10.034;2023-04-25T01:26:41;19.55;;;6.10;;
55037;SDS011;40937;53.594;10.034;2023-04-25T01:32:53;34.08;;;6.15;;
55037;SDS011;40937;53.594;10.034;2023-04-25T01:35:24;35.17;;;6.47;;
55037;SDS011;40937;53.594;10.034;2023-04-25T01:37:54;49.58;;;6.90;;
55037;SDS011;40937;53.594;10.034;2023-04-25T01:40:21;22.60;;;6.40;;
55037;SDS011;40937;53.594;10.034;2023-04-25T01:42:49;27.95;;;7.05;;
55037;SDS011;40937;53.594;10.034;2023-04-25T01:45:17;30.13;;;6.72;;
55037;SDS011;40937;53.594;10.034;2023-04-25T01:47:44;29.25;;;6.47;;
55037;SDS011;40937;53.594;10.034;2023-04-25T01:50:15;31.48;;;7.30;;
55037;SDS011;40937;53.594;10.034;2023-04-25T01:52:42;28.00;;;6.53;;
55037;SDS011;40937;53.594;10.034;2023-04-25T01:55:11;30.02;;;5.78;;
55037;SDS011;40937;53.594;10.034;2023-04-25T01:57:45;26.83;;;6.25;;
55037;SDS011;40937;53.594;10.034;2023-04-25T02:00:12;28.85;;;6.57;;
55037;SDS011;40937;53.594;10.034;2023-04-25T02:02:42;28.85;;;5.68;;
55037;SDS011;40937;53.594;10.034;2023-04-25T02:05:28;21.25;;;6.47;;
55037;SDS011;40937;53.594;10.034;2023-04-25T02:08:00;25.05;;;5.88;;
55037;SDS011;40937;53.594;10.034;2023-04-25T02:14:13;27.48;;;6.13;;
55037;SDS011;40937;53.594;10.034;2023-04-25T02:16:59;22.58;;;6.38;;
55037;SDS011;40937;53.594;10.034;2023-04-25T02:19:26;26.50;;;5.80;;
55037;SDS011;40937;53.594;10.034;2023-04-25T02:21:53;23.83;;;6.78;;
55037;SDS011;40937;53.594;10.034;2023-04-25T02:24:20;32.35;;;6.78;;
55037;SDS011;40937;53.594;10.034;2023-04-25T02:26:47;32.72;;;6.55;;
55037;SDS011;40937;53.594;10.034;2023-04-25T02:29:16;20.90;;;5.18;;
55037;SDS011;40937;53.594;10.034;2023-04-25T02:31:43;21.45;;;6.18;;
55037;SDS011;40937;53.594;10.034;2023-04-25T02:34:10;31.88;;;6.70;;
55037;SDS011;40937;53.594;10.034;2023-04-25T02:36:38;27.52;;;6.68;;
55037;SDS011;40937;53.594;10.034;2023-04-25T02:39:05;37.47;;;7.38;;
55037;SDS011;40937;53.594;10.034;2023-04-25T02:41:32;32.08;;;6.18;;
55037;SDS011;40937;53.594;10.034;2023-04-25T02:43:59;17.85;;;5.55;;
55037;SDS011;40937;53.594;10.034;2023-04-25T02:46:27;30.70;;;6.65;;
55037;SDS011;40937;53.594;10.034;2023-04-25T02:48:54;24.10;;;6.22;;
55037;SDS011;40937;53.594;10.034;2023-04-25T02:51:21;28.63;;;5.18;;
55037;SDS011;40937;53.594;10.034;2023-04-25T02:53:48;25.85;;;6.18;;
55037;SDS011;40937;53.594;10.034;2023-04-25T02:56:15;24.85;;;6.13;;
55037;SDS011;40937;53.594;10.034;2023-04-25T02:58:42;31.65;;;6.50;;
55037;SDS011;40937;53.594;10.034;2023-04-25T03:01:10;29.38;;;5.32;;
55037;SDS011;40937;53.594;10.034;2023-04-25T03:03:38;18.58;;;5.05;;
55037;SDS011;40937;53.594;10.034;2023-04-25T03:06:05;26.63;;;6.13;;
55037;SDS011;40937;53.594;10.034;2023-04-25T03:08:32;27.63;;;6.40;;
55037;SDS011;40937;53.594;10.034;2023-04-25T03:11:01;21.58;;;5.78;;
55037;SDS011;40937;53.594;10.034;2023-04-25T03:13:38;18.88;;;5.68;;
55037;SDS011;40937;53.594;10.034;2023-04-25T03:20:35;26.08;;;6.07;;
55037;SDS011;40937;53.594;10.034;2023-04-25T03:23:03;26.38;;;5.97;;
55037;SDS011;40937;53.594;10.034;2023-04-25T03:25:58;23.35;;;6.05;;
55037;SDS011;40937;53.594;10.034;2023-04-25T03:28:26;28.17;;;6.75;;
55037;SDS011;40937;53.594;10.034;2023-04-25T03:30:55;23.88;;;5.43;;
55037;SDS011;40937;53.594;10.034;2023-04-25T03:33:23;24.80;;;5.45;;
55037;SDS011;40937;53.594;10.034;2023-04-25T03:36:17;22.23;;;5.13;;
55037;SDS011;40937;53.594;10.034;2023-04-25T03:38:44;30.63;;;5.57;;
55037;SDS011;40937;53.594;10.034;2023-04-25T03:41:14;20.63;;;5.57;;
55037;SDS011;40937;53.594;10.034;2023-04-25T03:43:47;22.85;;;6.10;;
55037;SDS011;40937;53.594;10.034;2023-04-25T03:46:16;17.83;;;5.13;;
55037;SDS011;40937;53.594;10.034;2023-04-25T03:49:08;18.73;;;5.35;;
55037;SDS011;40937;53.594;10.034;2023-04-25T03:52:08;24.17;;;5.20;;
55037;SDS011;40937;53.594;10.034;2023-04-25T03:54:38;19.90;;;4.93;;
55037;SDS011;40937;53.594;10.034;2023-04-25T03:57:09;35.90;;;5.57;;
55037;SDS011;40937;53.594;10.034;2023-04-25T03:59:38;21.65;;;6.10;;
55037;SDS011;40937;53.594;10.034;2023-04-25T04:02:07;18.27;;;4.95;;
55037;SDS011;40937;53.594;10.034;2023-04-25T04:04:35;23.92;;;5.72;;
55037;SDS011;40937;53.594;10.034;2023-04-25T04:07:02;26.10;;;5.75;;
55037;SDS011;40937;53.594;10.034;2023-04-25T04:09:35;19.27;;;4.78;;
55037;SDS011;40937;53.594;10.034;2023-04-25T04:12:07;24.90;;;5.22;;
55037;SDS011;40937;53.594;10.034;2023-04-25T04:14:35;20.55;;;4.90;;
55037;SDS011;40937;53.594;10.034;2023-04-25T04:17:02;21.13;;;5.40;;
55037;SDS011;40937;53.594;10.034;2023-04-25T04:19:29;21.95;;;4.55;;
55037;SDS011;40937;53.594;10.034;2023-04-25T04:22:25;20.33;;;4.95;;
55037;SDS011;40937;53.594;10.034;2023-04-25T04:24:57;27.38;;;5.55;;
55037;SDS011;40937;53.594;10.034;2023-04-25T04:27:47;25.45;;;5.88;;
55037;SDS011;40937;53.594;10.034;2023-04-25T04:30:23;17.88;;;5.35;;
55037;SDS011;40937;53.594;10.034;2023-04-25T04:32:56;15.10;;;5.30;;
55037;SDS011;40937;53.594;10.034;2023-04-25T04:35:23;21.63;;;5.13;;
55037;SDS011;40937;53.594;10.034;2023-04-25T04:37:50;24.48;;;4.75;;
55037;SDS011;40937;53.594;10.034;2023-04-25T04:40:20;17.27;;;4.78;;
55037;SDS011;40937;53.594;10.034;2023-04-25T04:43:07;18.13;;;4.75;;
55037;SDS011;40937;53.594;10.034;2023-04-25T04:45:54;21.08;;;4.90;;
55037;SDS011;40937;53.594;10.034;2023-04-25T04:48:32;16.50;;;4.40;;
55037;SDS011;40937;53.594;10.034;2023-04-25T04:51:18;19.17;;;4.25;;
55037;SDS011;40937;53.594;10.034;2023-04-25T04:53:55;16.35;;;4.75;;
55037;SDS011;40937;53.594;10.034;2023-04-25T04:56:45;20.92;;;4.93;;
55037;SDS011;40937;53.594;10.034;2023-04-25T04:59:21;15.18;;;4.88;;
55037;SDS011;40937;53.594;10.034;2023-04-25T05:01:59;17.67;;;4.40;;
55037;SDS011;40937;53.594;10.034;2023-04-25T05:04:52;14.27;;;3.97;;
55037;SDS011;40937;53.594;10.034;2023-04-25T05:07:37;18.67;;;5.50;;
55037;SDS011;40937;53.594;10.034;2023-04-25T05:10:09;19.95;;;4.82;;
55037;SDS011;40937;53.594;10.034;2023-04-25T05:12:57;21.02;;;4.40;;
55037;SDS011;40937;53.594;10.034;2023-04-25T05:15:41;17.58;;;4.32;;
55037;SDS011;40937;53.594;10.034;2023-04-25T05:18:21;27.38;;;5.25;;
55037;SDS011;40937;53.594;10.034;2023-04-25T05:21:17;14.50;;;4.22;;
55037;SDS011;40937;53.594;10.034;2023-04-25T05:24:00;18.08;;;4.38;;
55037;SDS011;40937;53.594;10.034;2023-04-25T05:26:50;12.80;;;3.80;;
55037;SDS011;40937;53.594;10.034;2023-04-25T05:29:42;17.15;;;4.93;;
55037;SDS011;40937;53.594;10.034;2023-04-25T05:32:22;15.90;;;4.65;;
55037;SDS011;40937;53.594;10.034;2023-04-25T05:34:50;20.15;;;4.75;;
55037;SDS011;40937;53.594;10.034;2023-04-25T05:37:27;19.25;;;4.65;;
55037;SDS011;40937;53.594;10.034;2023-04-25T05:40:03;18.83;;;4.15;;
55037;SDS011;40937;53.594;10.034;2023-04-25T05:42:49;11.00;;;4.38;;
55037;SDS011;40937;53.594;10.034;2023-04-25T05:45:23;16.20;;;4.53;;
55037;SDS011;40937;53.594;10.034;2023-04-25T05:48:04;16.60;;;4.35;;
55037;SDS011;40937;53.594;10.034;2023-04-25T05:50:58;19.58;;;5.28;;
55037;SDS011;40937;53.594;10.034;2023-04-25T05:53:57;18.42;;;4.55;;
55037;SDS011;40937;53.594;10.034;2023-04-25T05:56:24;20.52;;;5.15;;
55037;SDS011;40937;53.594;10.034;2023-04-25T05:58:52;23.58;;;5.57;;
55037;SDS011;40937;53.594;10.034;2023-04-25T06:01:21;21.98;;;4.90;;
55037;SDS011;40937;53.594;10.034;2023-04-25T06:03:48;18.75;;;4.80;;
55037;SDS011;40937;53.594;10.034;2023-04-25T06:06:17;22.92;;;4.38;;
55037;SDS011;40937;53.594;10.034;2023-04-25T06:08:46;24.42;;;5.05;;
55037;SDS011;40937;53.594;10.034;2023-04-25T06:11:13;17.85;;;4.93;;
55037;SDS011;40937;53.594;10.034;2023-04-25T06:13:40;19.35;;;5.28;;
55037;SDS011;40937;53.594;10.034;2023-04-25T06:16:07;23.95;;;4.70;;
55037;SDS011;40937;53.594;10.034;2023-04-25T06:18:35;16.60;;;4.82;;
55037;SDS011;40937;53.594;10.034;2023-04-25T06:21:03;20.60;;;4.05;;
55037;SDS011;40937;53.594;10.034;2023-04-25T06:23:30;20.05;;;4.18;;
55037;SDS011;40937;53.594;10.034;2023-04-25T06:26:02;20.55;;;5.00;;
55037;SDS011;40937;53.594;10.034;2023-04-25T06:28:30;17.45;;;4.35;;
55037;SDS011;40937;53.594;10.034;2023-04-25T06:30:59;19.13;;;6.95;;
55037;SDS011;40937;53.594;10.034;2023-04-25T06:33:26;18.40;;;5.00;;
55037;SDS011;40937;53.594;10.034;2023-04-25T06:35:57;13.20;;;4.47;;
55037;SDS011;40937;53.594;10.034;2023-04-25T06:38:26;14.82;;;4.35;;
55037;SDS011;40937;53.594;10.034;2023-04-25T06:40:55;18.00;;;4.15;;
55037;SDS011;40937;53.594;10.034;2023-04-25T06:43:22;15.05;;;4.85;;
55037;SDS011;40937;53.594;10.034;2023-04-25T06:46:04;22.77;;;3.85;;
55037;SDS011;40937;53.594;10.034;2023-04-25T06:48:35;11.93;;;3.67;;
55037;SDS011;40937;53.594;10.034;2023-04-25T06:51:04;22.08;;;5.40;;
55037;SDS011;40937;53.594;10.034;2023-04-25T06:53:31;16.30;;;4.38;;
55037;SDS011;40937;53.594;10.034;2023-04-25T06:56:00;16.90;;;4.55;;
55037;SDS011;40937;53.594;10.034;2023-04-25T06:58:42;12.90;;;4.03;;
55037;SDS011;40937;53.594;10.034;2023-04-25T07:01:29;15.23;;;3.85;;
55037;SDS011;40937;53.594;10.034;2023-04-25T07:06:42;15.25;;;4.72;;
55037;SDS011;40937;53.594;10.034;2023-04-25T07:09:14;12.70;;;4.10;;
55037;SDS011;40937;53.594;10.034;2023-04-25T07:11:45;19.27;;;4.68;;
55037;SDS011;40937;53.594;10.034;2023-04-25T07:14:12;12.80;;;3.20;;
55037;SDS011;40937;53.594;10.034;2023-04-25T07:16:39;12.77;;;3.75;;
55037;SDS011;40937;53.594;10.034;2023-04-25T07:19:07;14.45;;;3.58;;
55037;SDS011;40937;53.594;10.034;2023-04-25T07:21:37;13.52;;;3.55;;
55037;SDS011;40937;53.594;10.034;2023-04-25T07:24:07;16.70;;;4.45;;
55037;SDS011;40937;53.594;10.034;2023-04-25T07:29:36;10.40;;;3.45;;
55037;SDS011;40937;53.594;10.034;2023-04-25T07:32:06;18.70;;;3.67;;
55037;SDS011;40937;53.594;10.034;2023-04-25T07:34:34;10.55;;;3.22;;
55037;SDS011;40937;53.594;10.034;2023-04-25T07:37:02;17.73;;;3.92;;
55037;SDS011;40937;53.594;10.034;2023-04-25T07:39:38;10.60;;;3.08;;
55037;SDS011;40937;53.594;10.034;2023-04-25T07:42:06;15.20;;;3.55;;
55037;SDS011;40937;53.594;10.034;2023-04-25T07:44:34;18.35;;;3.85;;
55037;SDS011;40937;53.594;10.034;2023-04-25T07:47:05;9.73;;;3.53;;
55037;SDS011;40937;53.594;10.034;2023-04-25T07:49:32;12.25;;;3.33;;
55037;SDS011;40937;53.594;10.034;2023-04-25T07:52:00;13.52;;;3.72;;
55037;SDS011;40937;53.594;10.034;2023-04-25T07:54:27;11.23;;;3.55;;
55037;SDS011;40937;53.594;10.034;2023-04-25T07:57:01;14.65;;;3.53;;
55037;SDS011;40937;53.594;10.034;2023-04-25T07:59:30;15.85;;;3.65;;
55037;SDS011;40937;53.594;10.034;2023-04-25T08:01:59;16.42;;;3.78;;
55037;SDS011;40937;53.594;10.034;2023-04-25T08:04:27;13.05;;;3.25;;
55037;SDS011;40937;53.594;10.034;2023-04-25T08:07:02;13.90;;;3.10;;
55037;SDS011;40937;53.594;10.034;2023-04-25T08:09:35;16.17;;;3.83;;
55037;SDS011;40937;53.594;10.034;2023-04-25T08:12:06;17.15;;;3.90;;
55037;SDS011;40937;53.594;10.034;2023-04-25T08:14:34;14.23;;;3.85;;
55037;SDS011;40937;53.594;10.034;2023-04-25T08:17:06;13.07;;;3.28;;
55037;SDS011;40937;53.594;10.034;2023-04-25T08:19:40;9.13;;;3.38;;
55037;SDS011;40937;53.594;10.034;2023-04-25T08:22:18;12.35;;;3.30;;
55037;SDS011;40937;53.594;10.034;2023-04-25T08:24:52;7.93;;;2.95;;
55037;SDS011;40937;53.594;10.034;2023-04-25T08:27:23;9.30;;;3.17;;
55037;SDS011;40937;53.594;10.034;2023-04-25T08:29:51;15.73;;;2.97;;
55037;SDS011;40937;53.594;10.034;2023-04-25T08:32:20;14.68;;;3.45;;
55037;SDS011;40937;53.594;10.034;2023-04-25T08:35:17;6.70;;;2.33;;
55037;SDS011;40937;53.594;10.034;2023-04-25T08:37:49;11.20;;;2.95;;
55037;SDS011;40937;53.594;10.034;2023-04-25T08:40:27;9.40;;;2.78;;
55037;SDS011;40937;53.594;10.034;2023-04-25T08:43:04;19.92;;;3.55;;
55037;SDS011;40937;53.594;10.034;2023-04-25T08:45:38;11.43;;;3.20;;
55037;SDS011;40937;53.594;10.034;2023-04-25T08:48:13;13.90;;;3.45;;
55037;SDS011;40937;53.594;10.034;2023-04-25T08:50:45;10.40;;;3.08;;
55037;SDS011;40937;53.594;10.034;2023-04-25T08:53:15;15.55;;;3.95;;
55037;SDS011;40937;53.594;10.034;2023-04-25T08:55:46;12.00;;;3.42;;
55037;SDS011;40937;53.594;10.034;2023-04-25T08:58:20;11.70;;;3.58;;
55037;SDS011;40937;53.594;10.034;2023-04-25T09:00:59;17.45;;;3.22;;
55037;SDS011;40937;53.594;10.034;2023-04-25T09:03:35;11.60;;;3.25;;
55037;SDS011;40937;53.594;10.034;2023-04-25T09:06:05;11.27;;;3.47;;
55037;SDS011;40937;53.594;10.034;2023-04-25T09:08:36;12.52;;;4.97;;
55037;SDS011;40937;53.594;10.034;2023-04-25T09:11:04;12.45;;;4.18;;
55037;SDS011;40937;53.594;10.034;2023-04-25T09:13:34;14.60;;;3.60;;
55037;SDS011;40937;53.594;10.034;2023-04-25T09:16:23;9.63;;;3.00;;
55037;SDS011;40937;53.594;10.034;2023-04-25T09:19:20;13.32;;;3.15;;
55037;SDS011;40937;53.594;10.034;2023-04-25T09:21:51;12.35;;;2.63;;
55037;SDS011;40937;53.594;10.034;2023-04-25T09:24:28;11.38;;;2.60;;
55037;SDS011;40937;53.594;10.034;2023-04-25T09:27:05;7.10;;;2.08;;
55037;SDS011;40937;53.594;10.034;2023-04-25T09:29:40;10.52;;;2.80;;
55037;SDS011;40937;53.594;10.034;2023-04-25T09:32:13;9.63;;;2.75;;
55037;SDS011;40937;53.594;10.034;2023-04-25T09:34:42;11.70;;;3.10;;
55037;SDS011;40937;53.594;10.034;2023-04-25T09:37:16;8.45;;;2.47;;
55037;SDS011;40937;53.594;10.034;2023-04-25T09:40:11;11.88;;;3.38;;
55037;SDS011;40937;53.594;10.034;2023-04-25T09:42:52;11.25;;;3.10;;
55037;SDS011;40937;53.594;10.034;2023-04-25T09:45:30;7.85;;;2.58;;
55037;SDS011;40937;53.594;10.034;2023-04-25T09:48:02;6.85;;;2.28;;
55037;SDS011;40937;53.594;10.034;2023-04-25T09:50:31;10.65;;;3.15;;
55037;SDS011;40937;53.594;10.034;2023-04-25T09:53:06;8.07;;;2.55;;
55037;SDS011;40937;53.594;10.034;2023-04-25T09:55:51;9.40;;;2.88;;
55037;SDS011;40937;53.594;10.034;2023-04-25T09:58:24;10.32;;;2.72;;
55037;SDS011;40937;53.594;10.034;2023-04-25T10:00:58;13.15;;;3.17;;
55037;SDS011;40937;53.594;10.034;2023-04-25T10:03:37;10.38;;;2.88;;
55037;SDS011;40937;53.594;10.034;2023-04-25T10:06:23;13.15;;;3.15;;
55037;SDS011;40937;53.594;10.034;2023-04-25T10:08:57;12.00;;;3.03;;
55037;SDS011;40937;53.594;10.034;2023-04-25T10:11:29;9.98;;;2.72;;
55037;SDS011;40937;53.594;10.034;2023-04-25T10:13:58;13.68;;;4.72;;
55037;SDS011;40937;53.594;10.034;2023-04-25T10:16:28;10.10;;;4.53;;
55037;SDS011;40937;53.594;10.034;2023-04-25T10:18:59;7.68;;;2.70;;
55037;SDS011;40937;53.594;10.034;2023-04-25T10:21:29;9.60;;;2.28;;
55037;SDS011;40937;53.594;10.034;2023-04-25T10:24:00;11.30;;;2.85;;
55037;SDS011;40937;53.594;10.034;2023-04-25T10:26:29;4.97;;;2.17;;
55037;SDS011;40937;53.594;10.034;2023-04-25T10:29:03;10.23;;;1.83;;
55037;SDS011;40937;53.594;10.034;2023-04-25T10:31:38;8.15;;;2.33;;
55037;SDS011;40937;53.594;10.034;2023-04-25T10:34:11;6.50;;;2.70;;
55037;SDS011;40937;53.594;10.034;2023-04-25T10:36:39;8.30;;;2.67;;
55037;SDS011;40937;53.594;10.034;2023-04-25T10:39:19;10.52;;;3.28;;
55037;SDS011;40937;53.594;10.034;2023-04-25T10:41:55;7.95;;;2.40;;
55037;SDS011;40937;53.594;10.034;2023-04-25T10:44:26;13.98;;;3.03;;
55037;SDS011;40937;53.594;10.034;2023-04-25T10:47:01;11.45;;;3.33;;
55037;SDS011;40937;53.594;10.034;2023-04-25T10:49:32;12.73;;;2.93;;
55037;SDS011;40937;53.594;10.034;2023-04-25T10:52:13;11.52;;;3.15;;
55037;SDS011;40937;53.594;10.034;2023-04-25T10:54:51;10.57;;;2.90;;
55037;SDS011;40937;53.594;10.034;2023-04-25T10:57:31;9.20;;;2.75;;
55037;SDS011;40937;53.594;10.034;2023-04-25T11:00:06;11.55;;;2.92;;
55037;SDS011;40937;53.594;10.034;2023-04-25T11:02:41;8.68;;;2.38;;
55037;SDS011;40937;53.594;10.034;2023-04-25T11:05:18;8.82;;;2.22;;
55037;SDS011;40937;53.594;10.034;2023-04-25T11:07:49;8.10;;;2.80;;
55037;SDS011;40937;53.594;10.034;2023-04-25T11:10:20;10.50;;;2.20;;
55037;SDS011;40937;53.594;10.034;2023-04-25T11:12:51;9.95;;;2.17;;
55037;SDS011;40937;53.594;10.034;2023-04-25T11:15:18;7.72;;;2.13;;
55037;SDS011;40937;53.594;10.034;2023-04-25T11:17:46;8.48;;;2.45;;
55037;SDS011;40937;53.594;10.034;2023-04-25T11:20:13;13.20;;;2.97;;
55037;SDS011;40937;53.594;10.034;2023-04-25T11:22:41;9.65;;;2.15;;
55037;SDS011;40937;53.594;10.034;2023-04-25T11:25:08;10.07;;;2.67;;
55037;SDS011;40937;53.594;10.034;2023-04-25T11:27:37;13.55;;;2.88;;
55037;SDS011;40937;53.594;10.034;2023-04-25T11:30:11;8.18;;;2.40;;
55037;SDS011;40937;53.594;10.034;2023-04-25T11:32:39;7.85;;;2.05;;
55037;SDS011;40937;53.594;10.034;2023-04-25T11:35:10;14.93;;;5.13;;
55037;SDS011;40937;53.594;10.034;2023-04-25T11:37:38;7.95;;;2.70;;
55037;SDS011;40937;53.594;10.034;2023-04-25T11:40:05;5.95;;;2.35;;
55037;SDS011;40937;53.594;10.034;2023-04-25T11:42:34;8.50;;;2.35;;
55037;SDS011;40937;53.594;10.034;2023-04-25T11:45:03;8.05;;;2.08;;
55037;SDS011;40937;53.594;10.034;2023-04-25T11:47:31;6.20;;;2.53;;
55037;SDS011;40937;53.594;10.034;2023-04-25T11:49:58;10.75;;;3.03;;
55037;SDS011;40937;53.594;10.034;2023-04-25T11:52:36;6.50;;;2.20;;
55037;SDS011;40937;53.594;10.034;2023-04-25T11:55:04;10.43;;;2.10;;
55037;SDS011;40937;53.594;10.034;2023-04-25T11:57:32;7.13;;;1.95;;
55037;SDS011;40937;53.594;10.034;2023-04-25T12:00:05;6.82;;;2.30;;
55037;SDS011;40937;53.594;10.034;2023-04-25T12:02:39;12.60;;;2.38;;
55037;SDS011;40937;53.594;10.034;2023-04-25T12:36:36;5.82;;;1.65;;
55037;SDS011;40937;53.594;10.034;2023-04-25T12:49:25;6.15;;;2.22;;
55037;SDS011;40937;53.594;10.034;2023-04-25T12:51:54;3.10;;;1.70;;
55037;SDS011;40937;53.594;10.034;2023-04-25T12:54:21;5.97;;;1.95;;
55037;SDS011;40937;53.594;10.034;2023-04-25T12:56:48;5.70;;;1.70;;
55037;SDS011;40937;53.594;10.034;2023-04-25T12:59:15;7.03;;;2.40;;
55037;SDS011;40937;53.594;10.034;2023-04-25T13:01:42;8.05;;;1.65;;
55037;SDS011;40937;53.594;10.034;2023-04-25T13:04:10;10.05;;;2.10;;
55037;SDS011;40937;53.594;10.034;2023-04-25T13:06:37;6.63;;;2.38;;
55037;SDS011;40937;53.594;10.034;2023-04-25T13:09:06;6.97;;;2.47;;
55037;SDS011;40937;53.594;10.034;2023-04-25T13:11:33;6.07;;;2.10;;
55037;SDS011;40937;53.594;10.034;2023-04-25T13:14:01;10.13;;;2.05;;
55037;SDS011;40937;53.594;10.034;2023-04-25T13:16:28;5.05;;;2.22;;
55037;SDS011;40937;53.594;10.034;2023-04-25T13:18:55;6.22;;;2.08;;
55037;SDS011;40937;53.594;10.034;2023-04-25T13:21:22;5.15;;;1.92;;
55037;SDS011;40937;53.594;10.034;2023-04-25T13:23:49;5.70;;;1.67;;
55037;SDS011;40937;53.594;10.034;2023-04-25T13:26:18;5.90;;;1.77;;
55037;SDS011;40937;53.594;10.034;2023-04-25T13:28:45;8.75;;;2.47;;
55037;SDS011;40937;53.594;10.034;2023-04-25T13:31:12;9.00;;;2.35;;
55037;SDS011;40937;53.594;10.034;2023-04-25T13:33:39;7.50;;;2.40;;
55037;SDS011;40937;53.594;10.034;2023-04-25T13:36:06;7.72;;;2.40;;
55037;SDS011;40937;53.594;10.034;2023-04-25T13:38:33;7.53;;;1.98;;
55037;SDS011;40937;53.594;10.034;2023-04-25T13:40:59;11.32;;;2.83;;
55037;SDS011;40937;53.594;10.034;2023-04-25T13:43:28;12.50;;;2.45;;
55037;SDS011;40937;53.594;10.034;2023-04-25T13:45:55;8.18;;;2.70;;
55037;SDS011;40937;53.594;10.034;2023-04-25T13:48:22;10.27;;;2.45;;
55037;SDS011;40937;53.594;10.034;2023-04-25T13:50:49;7.72;;;1.83;;
55037;SDS011;40937;53.594;10.034;2023-04-25T13:53:16;8.82;;;2.28;;
55037;SDS011;40937;53.594;10.034;2023-04-25T13:55:43;8.18;;;2.60;;
55037;SDS011;40937;53.594;10.034;2023-04-25T13:58:10;9.68;;;2.60;;
55037;SDS011;40937;53.594;10.034;2023-04-25T14:00:40;6.65;;;2.60;;
55037;SDS011;40937;53.594;10.034;2023-04-25T14:03:09;9.65;;;2.45;;
55037;SDS011;40937;53.594;10.034;2023-04-25T14:05:36;6.50;;;1.73;;
55037;SDS011;40937;53.594;10.034;2023-04-25T14:08:05;5.47;;;2.22;;
55037;SDS011;40937;53.594;10.034;2023-04-25T14:10:32;7.40;;;1.90;;
55037;SDS011;40937;53.594;10.034;2023-04-25T14:13:00;7.13;;;1.80;;
55037;SDS011;40937;53.594;10.034;2023-04-25T14:15:30;6.13;;;2.10;;
55037;SDS011;40937;53.594;10.034;2023-04-25T14:17:59;8.95;;;2.45;;
55037;SDS011;40937;53.594;10.034;2023-04-25T14:20:26;9.77;;;2.40;;
55037;SDS011;40937;53.594;10.034;2023-04-25T14:22:53;7.25;;;2.58;;
55037;SDS011;40937;53.594;10.034;2023-04-25T14:25:21;11.23;;;2.72;;
55037;SDS011;40937;53.594;10.034;2023-04-25T14:27:48;6.57;;;2.25;;
55037;SDS011;40937;53.594;10.034;2023-04-25T14:30:16;7.57;;;2.38;;
55037;SDS011;40937;53.594;10.034;2023-04-25T14:32:43;6.13;;;1.98;;
55037;SDS011;40937;53.594;10.034;2023-04-25T14:35:12;5.85;;;2.17;;
55037;SDS011;40937;53.594;10.034;2023-04-25T14:37:39;8.63;;;2.38;;
55037;SDS011;40937;53.594;10.034;2023-04-25T14:40:06;8.38;;;2.15;;
55037;SDS011;40937;53.594;10.034;2023-04-25T14:42:36;5.70;;;2.13;;
55037;SDS011;40937;53.594;10.034;2023-04-25T14:45:03;7.40;;;2.13;;
55037;SDS011;40937;53.594;10.034;2023-04-25T14:47:30;5.00;;;1.80;;
55037;SDS011;40937;53.594;10.034;2023-04-25T14:49:57;10.32;;;1.88;;
55037;SDS011;40937;53.594;10.034;2023-04-25T14:52:25;7.28;;;2.00;;
55037;SDS011;40937;53.594;10.034;2023-04-25T14:54:52;11.20;;;2.40;;
55037;SDS011;40937;53.594;10.034;2023-04-25T14:57:19;5.75;;;1.92;;
55037;SDS011;40937;53.594;10.034;2023-04-25T14:59:46;5.28;;;1.40;;
55037;SDS011;40937;53.594;10.034;2023-04-25T15:02:13;4.50;;;1.73;;
55037;SDS011;40937;53.594;10.034;2023-04-25T15:04:40;8.25;;;2.55;;
55037;SDS011;40937;53.594;10.034;2023-04-25T15:07:07;7.57;;;2.28;;
55037;SDS011;40937;53.594;10.034;2023-04-25T15:09:36;11.02;;;2.80;;
55037;SDS011;40937;53.594;10.034;2023-04-25T15:12:03;9.50;;;2.70;;
55037;SDS011;40937;53.594;10.034;2023-04-25T15:14:30;15.07;;;3.30;;
55037;SDS011;40937;53.594;10.034;2023-04-25T15:16:57;6.75;;;2.60;;
55037;SDS011;40937;53.594;10.034;2023-04-25T15:19:24;8.82;;;2.67;;
55037;SDS011;40937;53.594;10.034;2023-04-25T15:21:50;10.30;;;2.33;;
55037;SDS011;40937;53.594;10.034;2023-04-25T15:24:17;14.73;;;2.75;;
55037;SDS011;40937;53.594;10.034;2023-04-25T15:26:47;13.18;;;2.65;;
55037;SDS011;40937;53.594;10.034;2023-04-25T15:29:14;7.45;;;2.00;;
55037;SDS011;40937;53.594;10.034;2023-04-25T15:31:41;5.13;;;2.13;;
55037;SDS011;40937;53.594;10.034;2023-04-25T15:34:08;11.60;;;2.58;;
55037;SDS011;40937;53.594;10.034;2023-04-25T15:36:34;11.52;;;3.00;;
55037;SDS011;40937;53.594;10.034;2023-04-25T15:39:01;9.60;;;2.65;;
55037;SDS011;40937;53.594;10.034;2023-04-25T15:41:29;10.35;;;2.53;;
55037;SDS011;40937;53.594;10.034;2023-04-25T15:43:58;7.20;;;1.98;;
55037;SDS011;40937;53.594;10.034;2023-04-25T15:46:26;11.02;;;2.08;;
55037;SDS011;40937;53.594;10.034;2023-04-25T15:48:53;9.05;;;2.60;;